Time;durP1;ratioP1;P1;durP2;ratioP2;P2;SDS_P1;SDS_P2;PMS_P1;PMS_P2;Temp;Humidity;BMP_temperature;BMP_pressure;BME280_temperature;BME280_humidity;BME280_pressure;Samples;Min_cycle;Max_cycle;Signal;HPM_P1;HPM_P2
2022/11/22 00:00:41;;;;;;;;;;;6.80;85.20;;;-151.14;100.00;62537.16;5078476;28;19927;-80
2022/11/22 00:03:09;;;;;;;;;;;6.80;85.20;;;-151.14;100.00;62537.16;5078293;28;19919;-80
2022/11/22 00:05:36;;;;;;;;;;;6.80;85.30;;;-151.14;100.00;62537.16;5094042;28;20204;-80
2022/11/22 00:08:06;;;;;;;;;;;6.80;85.30;;;-151.14;100.00;62537.16;5095060;28;19919;-81
2022/11/22 00:10:34;;;;;;;;;;;6.80;85.30;;;-151.14;100.00;62537.16;5095100;28;19919;-81
2022/11/22 00:13:02;;;;;;;;;;;6.80;85.20;;;-151.14;100.00;62537.16;5094851;28;20118;-80
2022/11/22 00:15:30;;;;;;;;;;;6.80;85.20;;;-151.14;100.00;62537.16;5094388;28;19926;-81
2022/11/22 00:17:58;;;;;;;;;;;6.80;85.10;;;-151.14;100.00;62537.16;5078152;28;20234;-80
2022/11/22 00:20:25;;;;;;;;;;;6.80;85.10;;;-151.14;100.00;62537.16;5057942;28;19920;-80
2022/11/22 00:22:53;;;;;;;;;;;6.80;85.10;;;-151.14;100.00;62537.16;5074621;28;19920;-81
2022/11/22 00:25:23;;;;;;;;;;;6.80;85.00;;;-151.14;100.00;62537.16;5057436;28;19920;-81
2022/11/22 00:27:51;;;;;;;;;;;6.80;85.10;;;-151.14;100.00;62537.16;5074648;28;19927;-80
2022/11/22 00:30:18;;;;;;;;;;;6.80;85.10;;;-151.14;100.00;62537.16;5091289;28;20119;-80
2022/11/22 00:32:46;;;;;;;;;;;6.80;85.20;;;-151.14;100.00;62537.16;5091285;28;19926;-80
2022/11/22 00:35:15;;;;;;;;;;;6.80;85.10;;;-151.14;100.00;62537.16;5057330;28;19920;-80
2022/11/22 00:37:43;;;;;;;;;;;6.80;85.20;;;-151.14;100.00;62537.16;5091280;28;19926;-80
2022/11/22 00:40:11;;;;;;;;;;;6.80;85.20;;;-151.14;100.00;62537.16;5074357;28;19920;-80
2022/11/22 00:42:40;;;;;;;;;;;6.80;85.10;;;-151.14;100.00;62537.16;5074434;28;19920;-81
2022/11/22 00:45:09;;;;;;;;;;;6.80;85.10;;;-151.14;100.00;62537.16;5091810;28;19928;-80
2022/11/22 00:47:37;;;;;;;;;;;6.80;85.20;;;-151.14;100.00;62537.16;5074462;28;19942;-80
2022/11/22 00:50:06;;;;;;;;;;;6.80;85.10;;;-151.14;100.00;62537.16;5108058;28;19920;-80
2022/11/22 00:52:33;;;;;;;;;;;6.80;85.20;;;-151.14;100.00;62537.16;5057414;28;19920;-81
2022/11/22 00:55:01;;;;;;;;;;;6.80;85.30;;;-151.14;100.00;62537.16;5085307;28;19920;-81
2022/11/22 00:57:29;;;;;;;;;;;6.80;85.20;;;-151.14;100.00;62537.16;5111362;28;19920;-81
2022/11/22 00:59:59;;;;;;;;;;;6.80;85.10;;;-151.14;100.00;62537.16;5077560;28;20119;-80
2022/11/22 01:02:26;;;;;;;;;;;6.80;85.20;;;-151.14;100.00;62537.16;5094114;28;19926;-80
2022/11/22 01:04:54;;;;;;;;;;;6.80;85.20;;;-151.14;100.00;62537.16;5111710;28;19920;-80
2022/11/22 01:07:22;;;;;;;;;;;6.80;85.10;;;-151.14;100.00;62537.16;5094162;28;19926;-81
2022/11/22 01:09:50;;;;;;;;;;;6.80;85.20;;;-151.14;100.00;62537.16;5094166;28;19919;-80
2022/11/22 01:12:18;;;;;;;;;;;6.80;85.20;;;-151.14;100.00;62537.16;5094433;28;19920;-79
2022/11/22 01:14:46;;;;;;;;;;;6.80;85.10;;;-151.14;100.00;62537.16;5093454;28;20120;-80
2022/11/22 01:17:15;;;;;;;;;;;6.80;85.20;;;-151.14;100.00;62537.16;5077229;28;19920;-81
2022/11/22 01:19:43;;;;;;;;;;;6.80;85.20;;;-151.14;100.00;62537.16;5093501;28;20211;-80
2022/11/22 01:22:11;;;;;;;;;;;6.80;85.20;;;-151.14;100.00;62537.16;5093889;28;19920;-80
2022/11/22 01:24:39;;;;;;;;;;;6.80;85.00;;;-151.14;100.00;62537.16;5093716;28;19919;-81
2022/11/22 01:27:07;;;;;;;;;;;6.80;85.20;;;-151.14;100.00;62537.16;5093895;28;19920;-81
2022/11/22 01:29:35;;;;;;;;;;;6.80;85.10;;;-151.14;100.00;62537.16;5076872;28;19920;-81
2022/11/22 01:32:03;;;;;;;;;;;6.80;85.10;;;-151.14;100.00;62537.16;5093877;28;19920;-81
2022/11/22 01:34:32;;;;;;;;;;;6.80;85.20;;;-151.14;100.00;62537.16;5093366;28;19926;-81
2022/11/22 01:37:00;;;;;;;;;;;6.80;85.10;;;-151.14;100.00;62537.16;5093481;28;19920;-81
2022/11/22 01:39:28;;;;;;;;;;;6.80;85.20;;;-151.14;100.00;62537.16;5076924;28;19920;-81
2022/11/22 01:41:56;;;;;;;;;;;6.80;85.20;;;-151.14;100.00;62537.16;5076862;28;19933;-81
2022/11/22 01:44:25;;;;;;;;;;;6.70;85.20;;;-151.14;100.00;62537.16;5093589;28;20249;-81
2022/11/22 01:46:53;;;;;;;;;;;6.80;85.20;;;-151.14;100.00;62537.16;5111463;28;19920;-80
2022/11/22 01:49:25;;;;;;;;;;;6.70;85.20;;;-151.14;100.00;62537.16;5093849;28;20107;-81
2022/11/22 01:51:56;;;;;;;;;;;6.70;85.40;;;-151.14;100.00;62537.16;5076814;28;19920;-81
2022/11/22 01:54:25;;;;;;;;;;;6.70;85.20;;;-151.14;100.00;62537.16;5093372;28;20212;-81
2022/11/22 01:56:56;;;;;;;;;;;6.70;85.20;;;-151.14;100.00;62537.16;5110232;28;19920;-81
2022/11/22 01:59:26;;;;;;;;;;;6.70;85.20;;;-151.14;100.00;62537.16;5076603;28;20230;-81
2022/11/22 02:01:54;;;;;;;;;;;6.70;85.30;;;-151.14;100.00;62537.16;5093419;28;19919;-81
2022/11/22 02:04:22;;;;;;;;;;;6.70;85.20;;;-151.14;100.00;62537.16;5092893;28;19956;-81
2022/11/22 02:06:51;;;;;;;;;;;6.70;85.30;;;-151.14;100.00;62537.16;5110838;28;19934;-81
2022/11/22 02:09:20;;;;;;;;;;;6.70;85.20;;;-151.14;100.00;62537.16;5111397;28;19920;-80
2022/11/22 02:11:50;;;;;;;;;;;6.70;85.30;;;-151.14;100.00;62537.16;5093183;28;19920;-81
2022/11/22 02:14:20;;;;;;;;;;;6.70;85.30;;;-151.14;100.00;62537.16;5092989;28;19939;-81
2022/11/22 02:16:48;;;;;;;;;;;6.70;85.30;;;-151.14;100.00;62537.16;5092921;28;19919;-81
2022/11/22 02:19:18;;;;;;;;;;;6.70;85.10;;;-151.14;100.00;62537.16;5093013;28;19926;-81
2022/11/22 02:21:46;;;;;;;;;;;6.70;85.20;;;-151.14;100.00;62537.16;5076283;28;19926;-81
2022/11/22 02:24:16;;;;;;;;;;;6.70;85.20;;;-151.14;100.00;62537.16;5092838;28;19920;-81
2022/11/22 02:26:45;;;;;;;;;;;6.70;85.30;;;-151.14;100.00;62537.16;5093027;28;19919;-81
2022/11/22 02:29:13;;;;;;;;;;;6.70;85.30;;;-151.14;100.00;62537.16;5077636;28;19920;-80
2022/11/22 02:31:42;;;;;;;;;;;6.70;85.20;;;-151.14;100.00;62537.16;5080126;28;19919;-81
2022/11/22 02:34:10;;;;;;;;;;;6.70;85.20;;;-151.14;100.00;62537.16;5096328;28;19920;-81
2022/11/22 02:36:41;;;;;;;;;;;6.70;85.30;;;-151.14;100.00;62537.16;5096190;28;19926;-81
2022/11/22 02:39:09;;;;;;;;;;;6.70;85.20;;;-151.14;100.00;62537.16;5079490;28;19927;-81
2022/11/22 02:41:37;;;;;;;;;;;6.70;85.30;;;-151.14;100.00;62537.16;5079722;28;19920;-81
2022/11/22 02:44:07;;;;;;;;;;;6.70;85.30;;;-151.14;100.00;62537.16;5079383;28;19920;-81
2022/11/22 02:46:35;;;;;;;;;;;6.70;85.30;;;-151.14;100.00;62537.16;5113043;28;19927;-81
2022/11/22 02:49:02;;;;;;;;;;;6.70;85.30;;;-151.14;100.00;62537.16;5079450;28;19920;-81
2022/11/22 02:51:30;;;;;;;;;;;6.70;85.30;;;-151.14;100.00;62537.16;5096546;28;19920;-81
2022/11/22 02:53:58;;;;;;;;;;;6.70;85.30;;;-151.14;100.00;62537.16;5096100;28;19926;-81
2022/11/22 02:56:26;;;;;;;;;;;6.70;85.30;;;-151.14;100.00;62537.16;5095889;28;19920;-81
2022/11/22 02:58:54;;;;;;;;;;;6.70;85.30;;;-151.14;100.00;62537.16;5079163;28;20219;-81
2022/11/22 03:01:23;;;;;;;;;;;6.70;85.20;;;-151.14;100.00;62537.16;5095954;28;19920;-81
2022/11/22 03:03:51;;;;;;;;;;;6.70;85.40;;;-151.14;100.00;62537.16;5112825;28;20112;-81
2022/11/22 03:06:19;;;;;;;;;;;6.70;85.20;;;-151.14;100.00;62537.16;5078940;28;19920;-81
2022/11/22 03:08:47;;;;;;;;;;;6.70;85.20;;;-151.14;100.00;62537.16;5095898;28;19920;-81
2022/11/22 03:11:15;;;;;;;;;;;6.70;85.30;;;-151.14;100.00;62537.16;5079220;28;19926;-81
2022/11/22 03:13:43;;;;;;;;;;;6.70;85.40;;;-151.14;100.00;62537.16;5112857;28;19926;-81
2022/11/22 03:16:11;;;;;;;;;;;6.70;85.30;;;-151.14;100.00;62537.16;5078880;28;19920;-81
2022/11/22 03:18:40;;;;;;;;;;;6.70;85.30;;;-151.14;100.00;62537.16;5078947;28;19927;-81
2022/11/22 03:21:09;;;;;;;;;;;6.70;85.30;;;-151.14;100.00;62537.16;5095808;28;19919;-81
2022/11/22 03:23:37;;;;;;;;;;;6.70;85.30;;;-151.14;100.00;62537.16;5078181;28;19926;-81
2022/11/22 03:26:08;;;;;;;;;;;6.70;85.40;;;-151.14;100.00;62537.16;5094460;28;19920;-81
2022/11/22 03:28:36;;;;;;;;;;;6.70;85.20;;;-151.14;100.00;62537.16;5095325;28;19920;-81
2022/11/22 03:31:05;;;;;;;;;;;6.70;85.40;;;-151.14;100.00;62537.16;5078915;28;19920;-81
2022/11/22 03:33:33;;;;;;;;;;;6.70;85.50;;;-151.14;100.00;62537.16;5092639;28;19928;-81
2022/11/22 03:36:02;;;;;;;;;;;6.70;85.20;;;-151.14;100.00;62537.16;5058269;28;19927;-81
2022/11/22 03:38:30;;;;;;;;;;;6.70;85.30;;;-151.14;100.00;62537.16;5092023;28;19920;-81
2022/11/22 03:40:58;;;;;;;;;;;6.70;85.40;;;-151.14;100.00;62537.16;5074413;28;19920;-81
2022/11/22 03:43:26;;;;;;;;;;;6.70;85.30;;;-151.14;100.00;62537.16;5075088;28;20230;-81
2022/11/22 03:45:54;;;;;;;;;;;6.70;85.30;;;-151.14;100.00;62537.16;5091894;28;20243;-81
2022/11/22 03:48:22;;;;;;;;;;;6.60;85.20;;;-151.14;100.00;62537.16;5058496;28;19924;-81
2022/11/22 03:50:50;;;;;;;;;;;6.70;85.30;;;-151.14;100.00;62537.16;5075290;28;19920;-81
2022/11/22 03:53:19;;;;;;;;;;;6.70;85.40;;;-151.14;100.00;62537.16;5108830;28;20208;-81
2022/11/22 03:55:47;;;;;;;;;;;6.70;85.20;;;-151.14;100.00;62537.16;5058197;28;19927;-81
2022/11/22 03:58:15;;;;;;;;;;;6.70;85.40;;;-151.14;100.00;62537.16;5075155;28;20121;-81
2022/11/22 04:00:43;;;;;;;;;;;6.70;85.30;;;-151.14;100.00;62537.16;5058430;28;20116;-81
2022/11/22 04:03:11;;;;;;;;;;;6.70;85.40;;;-151.14;100.00;62537.16;5074864;28;20220;-81
2022/11/22 04:05:39;;;;;;;;;;;6.70;85.50;;;-151.14;100.00;62537.16;5058208;28;20116;-81
2022/11/22 04:08:06;;;;;;;;;;;6.60;86.10;;;-151.14;100.00;62537.16;5092765;28;19920;-81
2022/11/22 04:10:36;;;;;;;;;;;6.60;85.30;;;-151.14;100.00;62537.16;5058352;28;19920;-81
2022/11/22 04:13:04;;;;;;;;;;;6.60;85.30;;;-151.14;100.00;62537.16;5091689;28;20124;-81
2022/11/22 04:15:31;;;;;;;;;;;6.60;85.30;;;-151.14;100.00;62537.16;5057541;28;19928;-81
2022/11/22 04:17:58;;;;;;;;;;;6.60;85.30;;;-151.14;100.00;62537.16;5074826;28;19926;-81
2022/11/22 04:23:13;;;;;;;;;;;6.60;85.30;;;-151.14;100.00;62537.16;5074620;28;19926;-82
2022/11/22 04:25:42;;;;;;;;;;;6.60;85.30;;;-151.14;100.00;62537.16;5108142;28;19920;-81
2022/11/22 04:28:10;;;;;;;;;;;6.60;85.30;;;-151.14;100.00;62537.16;5092548;28;19926;-81
2022/11/22 04:33:24;;;;;;;;;;;6.60;85.20;;;-151.14;100.00;62537.16;5094482;28;19920;-81
2022/11/22 04:35:52;;;;;;;;;;;6.60;85.40;;;-151.14;100.00;62537.16;5094658;28;19919;-81
2022/11/22 04:38:19;;;;;;;;;;;6.60;85.30;;;-151.14;100.00;62537.16;5094423;28;19920;-81
2022/11/22 04:40:49;;;;;;;;;;;6.60;85.30;;;-151.14;100.00;62537.16;5094759;28;19946;-81
2022/11/22 04:46:05;;;;;;;;;;;6.60;85.20;;;-151.14;100.00;62537.16;5077437;28;19920;-81
2022/11/22 04:48:33;;;;;;;;;;;6.60;85.40;;;-151.14;100.00;62537.16;5094316;28;19926;-81
2022/11/22 04:53:46;;;;;;;;;;;6.60;85.50;;;-151.14;100.00;62537.16;5053925;28;19920;-81
2022/11/22 04:56:15;;;;;;;;;;;6.60;85.30;;;-151.14;100.00;62537.16;5077431;28;19920;-81
2022/11/22 04:58:43;;;;;;;;;;;6.60;85.20;;;-151.14;100.00;62537.16;5094179;28;19926;-81
2022/11/22 05:01:11;;;;;;;;;;;6.60;85.30;;;-151.14;100.00;62537.16;5112518;28;20097;-81
2022/11/22 05:03:39;;;;;;;;;;;6.60;85.30;;;-151.14;100.00;62537.16;5093842;28;19928;-81
2022/11/22 05:06:07;;;;;;;;;;;6.60;85.40;;;-151.14;100.00;62537.16;5077273;28;19942;-81
2022/11/22 05:08:35;;;;;;;;;;;6.60;85.30;;;-151.14;100.00;62537.16;5094183;28;19920;-81
2022/11/22 05:11:03;;;;;;;;;;;6.60;85.30;;;-151.14;100.00;62537.16;5094227;28;20212;-81
2022/11/22 05:13:33;;;;;;;;;;;6.60;85.40;;;-151.14;100.00;62537.16;5109108;28;19920;-81
2022/11/22 05:16:01;;;;;;;;;;;6.60;85.30;;;-151.14;100.00;62537.16;5093605;28;19926;-81
2022/11/22 05:18:29;;;;;;;;;;;6.60;85.40;;;-151.14;100.00;62537.16;5094051;28;20119;-81
2022/11/22 05:20:58;;;;;;;;;;;6.60;85.30;;;-151.14;100.00;62537.16;5094143;28;19919;-81
2022/11/22 05:26:12;;;;;;;;;;;6.60;85.40;;;-151.14;100.00;62537.16;5076840;28;19928;-81
2022/11/22 05:28:41;;;;;;;;;;;6.60;85.50;;;-151.14;100.00;62537.16;5077138;28;19926;-81
2022/11/22 05:31:10;;;;;;;;;;;6.50;85.30;;;-151.14;100.00;62537.16;5110818;28;19920;-81
2022/11/22 05:33:38;;;;;;;;;;;6.60;85.30;;;-151.14;100.00;62537.16;5093628;28;19928;-81
2022/11/22 05:36:07;;;;;;;;;;;6.60;85.50;;;-151.14;100.00;62537.16;5076548;28;19926;-81
2022/11/22 05:38:36;;;;;;;;;;;6.60;85.40;;;-151.14;100.00;62537.16;5093584;28;19920;-81
2022/11/22 05:41:04;;;;;;;;;;;6.60;85.50;;;-151.14;100.00;62537.16;5093640;28;19919;-80
2022/11/22 05:43:32;;;;;;;;;;;6.60;85.40;;;-151.14;100.00;62537.16;5093345;28;19935;-81
2022/11/22 05:46:09;;;;;;;;;;;6.60;85.60;;;-151.14;100.00;62537.16;5076475;28;20119;-81
2022/11/22 05:48:37;;;;;;;;;;;6.60;85.30;;;-151.14;100.00;62537.16;5111692;28;19926;-81
2022/11/22 05:51:05;;;;;;;;;;;6.60;85.60;;;-151.14;100.00;62537.16;5093703;28;20115;-81
2022/11/22 05:53:33;;;;;;;;;;;6.60;85.40;;;-151.14;100.00;62537.16;5093587;28;19928;-81
2022/11/22 05:56:04;;;;;;;;;;;6.60;85.30;;;-151.14;100.00;62537.16;5073167;28;19956;-81
2022/11/22 05:58:32;;;;;;;;;;;6.60;85.30;;;-151.14;100.00;62537.16;5073305;28;19927;-81
2022/11/22 06:01:04;;;;;;;;;;;6.60;85.40;;;-151.14;100.00;62537.16;5073472;28;20130;-81
2022/11/22 06:03:34;;;;;;;;;;;6.60;85.40;;;-151.14;100.00;62537.16;5073580;28;19928;-81
2022/11/22 06:06:02;;;;;;;;;;;6.60;85.50;;;-151.14;100.00;62537.16;5059934;28;19926;-81
2022/11/22 06:08:30;;;;;;;;;;;6.60;85.50;;;-151.14;100.00;62537.16;5060068;28;20097;-81
2022/11/22 06:11:04;;;;;;;;;;;6.60;85.30;;;-151.14;100.00;62537.16;5060041;28;20208;-81
2022/11/22 06:13:34;;;;;;;;;;;6.60;85.40;;;-151.14;100.00;62537.16;5076668;28;20205;-81
2022/11/22 06:16:02;;;;;;;;;;;6.60;85.30;;;-151.14;100.00;62537.16;5076269;28;20131;-81
2022/11/22 06:18:30;;;;;;;;;;;6.60;85.30;;;-151.14;100.00;62537.16;5060039;28;19926;-81
2022/11/22 06:21:00;;;;;;;;;;;6.60;85.30;;;-151.14;100.00;62537.16;5076803;28;19920;-81
2022/11/22 06:23:28;;;;;;;;;;;6.60;85.30;;;-151.14;100.00;62537.16;5059770;28;19934;-81
2022/11/22 06:25:58;;;;;;;;;;;6.60;85.30;;;-151.14;100.00;62537.16;5076416;28;19920;-81
2022/11/22 06:28:26;;;;;;;;;;;6.60;85.40;;;-151.14;100.00;62537.16;5076407;28;20226;-81
2022/11/22 06:30:54;;;;;;;;;;;6.60;85.20;;;-151.14;100.00;62537.16;5059798;28;19926;-81
2022/11/22 06:33:21;;;;;;;;;;;6.60;85.40;;;-151.14;100.00;62537.16;5076098;28;20208;-81
2022/11/22 06:35:49;;;;;;;;;;;6.60;85.30;;;-151.14;100.00;62537.16;5076019;28;19924;-81
2022/11/22 06:38:19;;;;;;;;;;;6.60;85.30;;;-151.14;100.00;62537.16;5076514;28;19920;-81
2022/11/22 06:40:46;;;;;;;;;;;6.60;85.30;;;-151.14;100.00;62537.16;5059580;28;19920;-81
2022/11/22 06:43:15;;;;;;;;;;;6.60;85.30;;;-151.14;100.00;62537.16;5092903;28;19927;-81
2022/11/22 06:45:43;;;;;;;;;;;6.60;85.40;;;-151.14;100.00;62537.16;5086881;28;19926;-81
2022/11/22 06:48:10;;;;;;;;;;;6.60;85.30;;;-151.14;100.00;62537.16;5079733;28;19920;-81
2022/11/22 06:50:38;;;;;;;;;;;6.60;85.30;;;-151.14;100.00;62537.16;5069671;28;19926;-81
2022/11/22 06:53:06;;;;;;;;;;;6.60;85.20;;;-151.14;100.00;62537.16;5076197;28;19921;-80
2022/11/22 06:55:35;;;;;;;;;;;6.60;85.30;;;-151.14;100.00;62537.16;5075631;28;19927;-81
2022/11/22 06:58:03;;;;;;;;;;;6.60;85.20;;;-151.14;100.00;62537.16;5092781;28;19920;-81
2022/11/22 07:00:31;;;;;;;;;;;6.60;85.20;;;-151.14;100.00;62537.16;5059242;28;19927;-80
2022/11/22 07:02:59;;;;;;;;;;;6.60;85.20;;;-151.14;100.00;62537.16;5093837;28;19927;-80
2022/11/22 07:05:27;;;;;;;;;;;6.60;85.20;;;-151.14;100.00;62537.16;5075121;28;19934;-81
2022/11/22 07:07:56;;;;;;;;;;;6.60;85.20;;;-151.14;100.00;62537.16;5092740;28;19920;-81
2022/11/22 07:10:24;;;;;;;;;;;6.60;85.10;;;-151.14;100.00;62537.16;5075877;28;19926;-81
2022/11/22 07:12:53;;;;;;;;;;;6.60;85.10;;;-151.14;100.00;62537.16;5076111;28;20209;-80
2022/11/22 07:15:21;;;;;;;;;;;6.70;85.00;;;-151.14;100.00;62537.16;5091965;28;19927;-80
2022/11/22 07:17:49;;;;;;;;;;;6.70;84.90;;;-151.14;100.00;62537.16;5075934;28;19920;-81
2022/11/22 07:20:17;;;;;;;;;;;6.70;85.00;;;-151.14;100.00;62537.16;5058954;28;20003;-81
2022/11/22 07:22:47;;;;;;;;;;;6.70;85.00;;;-151.14;100.00;62537.16;5059064;28;19926;-81
2022/11/22 07:25:15;;;;;;;;;;;6.70;84.90;;;-151.14;100.00;62537.16;5058250;28;19920;-80
2022/11/22 07:27:43;;;;;;;;;;;6.70;84.90;;;-151.14;100.00;62537.16;5075901;28;19920;-81
2022/11/22 07:30:13;;;;;;;;;;;6.70;84.80;;;-151.14;100.00;62537.16;5075466;28;20098;-80
2022/11/22 07:32:41;;;;;;;;;;;6.70;84.90;;;-151.14;100.00;62537.16;5092428;28;19926;-80
2022/11/22 07:35:09;;;;;;;;;;;6.70;84.80;;;-151.14;100.00;62537.16;5074838;28;19920;-80
2022/11/22 07:37:37;;;;;;;;;;;6.70;84.80;;;-151.14;100.00;62537.16;5078823;28;19920;-80
2022/11/22 07:40:06;;;;;;;;;;;6.70;84.80;;;-151.14;100.00;62537.16;5113526;28;19919;-81
2022/11/22 07:42:34;;;;;;;;;;;6.70;84.80;;;-151.14;100.00;62537.16;5078853;28;20212;-80
2022/11/22 07:45:02;;;;;;;;;;;6.70;84.80;;;-151.14;100.00;62537.16;5094696;28;19973;-80
2022/11/22 07:47:32;;;;;;;;;;;6.70;84.70;;;-151.14;100.00;62537.16;5095454;28;20216;-80
2022/11/22 07:50:00;;;;;;;;;;;6.70;84.70;;;-151.14;100.00;62537.16;5078662;28;19919;-80
2022/11/22 07:52:27;;;;;;;;;;;6.70;84.70;;;-151.14;100.00;62537.16;5078565;28;20230;-80
2022/11/22 07:54:55;;;;;;;;;;;6.70;84.50;;;-151.14;100.00;62537.16;5078037;28;19926;-80
2022/11/22 07:57:23;;;;;;;;;;;6.80;84.50;;;-151.14;100.00;62537.16;5078598;28;19920;-80
2022/11/22 07:59:51;;;;;;;;;;;6.80;84.40;;;-151.14;100.00;62537.16;5095022;28;20096;-80
2022/11/22 08:02:19;;;;;;;;;;;6.80;84.20;;;-151.14;100.00;62537.16;5095368;28;19920;-80
2022/11/22 08:04:48;;;;;;;;;;;6.80;83.90;;;-151.14;100.00;62537.16;5094455;28;19920;-81
2022/11/22 08:07:16;;;;;;;;;;;6.90;83.80;;;-151.14;100.00;62537.16;5112215;28;19920;-81
2022/11/22 08:09:44;;;;;;;;;;;6.90;83.70;;;-151.14;100.00;62537.16;5095000;28;19920;-80
2022/11/22 08:12:12;;;;;;;;;;;6.90;83.60;;;-151.14;100.00;62537.16;5078439;28;19920;-80
2022/11/22 08:14:40;;;;;;;;;;;6.90;83.40;;;-151.14;100.00;62537.16;5094558;28;20115;-80
2022/11/22 08:17:08;;;;;;;;;;;6.90;83.40;;;-151.14;100.00;62537.16;5078216;28;19919;-80
2022/11/22 08:19:36;;;;;;;;;;;6.90;83.40;;;-151.14;100.00;62537.16;5094902;28;20116;-80
2022/11/22 08:22:05;;;;;;;;;;;6.90;83.50;;;-151.14;100.00;62537.16;5078331;28;20130;-80
2022/11/22 08:24:33;;;;;;;;;;;6.90;83.40;;;-151.14;100.00;62537.16;5094541;28;19927;-80
2022/11/22 08:27:01;;;;;;;;;;;6.90;83.40;;;-151.14;100.00;62537.16;5077085;28;19926;-80
2022/11/22 08:29:29;;;;;;;;;;;7.00;83.50;;;-151.14;100.00;62537.16;5077891;28;20340;-80
2022/11/22 08:31:57;;;;;;;;;;;7.00;83.40;;;-151.14;100.00;62537.16;5112060;28;19920;-80
2022/11/22 08:34:25;;;;;;;;;;;7.00;83.40;;;-151.14;100.00;62537.16;5077819;28;19921;-81
2022/11/22 08:36:53;;;;;;;;;;;7.10;83.50;;;-151.14;100.00;62537.16;5111427;28;19920;-80
2022/11/22 08:39:22;;;;;;;;;;;7.10;83.40;;;-151.14;100.00;62537.16;5094631;28;19933;-81
2022/11/22 08:41:50;;;;;;;;;;;7.10;83.40;;;-151.14;100.00;62537.16;5077946;28;19919;-81
2022/11/22 08:44:18;;;;;;;;;;;7.20;83.20;;;-151.14;100.00;62537.16;5094392;28;19927;-80
2022/11/22 08:46:46;;;;;;;;;;;7.20;83.10;;;-151.14;100.00;62537.16;5093963;28;19927;-80
2022/11/22 08:49:14;;;;;;;;;;;7.20;83.00;;;-151.14;100.00;62537.16;5112598;28;19920;-80
2022/11/22 08:51:43;;;;;;;;;;;7.30;82.90;;;-151.14;100.00;62537.16;5077643;28;19920;-80
2022/11/22 08:54:11;;;;;;;;;;;7.30;82.90;;;-151.14;100.00;62537.16;5094202;28;19926;-80
2022/11/22 08:56:41;;;;;;;;;;;7.30;82.90;;;-151.14;100.00;62537.16;5111086;28;19920;-80
2022/11/22 08:59:09;;;;;;;;;;;7.30;82.80;;;-151.14;100.00;62537.16;5094162;28;20231;-80
2022/11/22 09:01:36;;;;;;;;;;;7.30;82.80;;;-151.14;100.00;62537.16;5112370;28;19923;-80
2022/11/22 09:04:04;;;;;;;;;;;7.40;82.60;;;-151.14;100.00;62537.16;5077345;28;19919;-81
2022/11/22 09:06:32;;;;;;;;;;;7.40;82.60;;;-151.14;100.00;62537.16;5076927;28;20215;-80
2022/11/22 09:09:00;;;;;;;;;;;7.40;82.60;;;-151.14;100.00;62537.16;5112087;28;19934;-80
2022/11/22 09:11:28;;;;;;;;;;;7.40;82.60;;;-151.14;100.00;62537.16;5077233;28;20228;-81
2022/11/22 09:13:59;;;;;;;;;;;7.40;82.50;;;-151.14;100.00;62537.16;5093804;28;19926;-81
2022/11/22 09:16:28;;;;;;;;;;;7.50;82.50;;;-151.14;100.00;62537.16;5093748;28;19926;-81
2022/11/22 09:18:56;;;;;;;;;;;7.50;82.50;;;-151.14;100.00;62537.16;5093995;28;19920;-81
2022/11/22 09:21:23;;;;;;;;;;;7.50;82.50;;;-151.14;100.00;62537.16;5094051;28;19926;-80
2022/11/22 09:23:53;;;;;;;;;;;7.50;82.60;;;-151.14;100.00;62537.16;5077064;28;19920;-80
2022/11/22 09:26:23;;;;;;;;;;;7.50;82.60;;;-151.14;100.00;62537.16;5076631;28;19926;-81
2022/11/22 09:28:51;;;;;;;;;;;7.50;83.30;;;-151.14;100.00;62537.16;5093891;28;19942;-80
2022/11/22 09:31:21;;;;;;;;;;;7.50;82.50;;;-151.14;100.00;62537.16;5093685;28;19965;-80
2022/11/22 09:33:49;;;;;;;;;;;7.50;82.40;;;-151.14;100.00;62537.16;5110745;28;20131;-80
2022/11/22 09:36:18;;;;;;;;;;;7.50;82.40;;;-151.14;100.00;62537.16;5093371;28;19927;-80
2022/11/22 09:38:46;;;;;;;;;;;7.50;82.40;;;-151.14;100.00;62537.16;5092233;28;19926;-80
2022/11/22 09:41:21;;;;;;;;;;;7.50;82.40;;;-151.14;100.00;62537.16;5093779;28;19920;-80
2022/11/22 09:43:52;;;;;;;;;;;7.50;82.40;;;-151.14;100.00;62537.16;5093624;28;19926;-80
2022/11/22 09:46:30;;;;;;;;;;;7.50;82.40;;;-151.14;100.00;62537.16;5093136;28;19920;-80
2022/11/22 09:49:15;;;;;;;;;;;7.50;82.40;;;-151.14;100.00;62537.16;5080588;28;20085;-80
2022/11/22 09:51:46;;;;;;;;;;;7.50;82.30;;;-151.14;100.00;62537.16;5091310;28;20236;-81
2022/11/22 09:54:16;;;;;;;;;;;7.50;82.20;;;-151.14;100.00;62537.16;5089968;28;19920;-80
2022/11/22 09:56:44;;;;;;;;;;;7.50;82.30;;;-151.14;100.00;62537.16;5091027;28;19920;-80
2022/11/22 09:59:14;;;;;;;;;;;7.50;82.20;;;-151.14;100.00;62537.16;5073495;28;19920;-81
2022/11/22 10:01:45;;;;;;;;;;;7.50;82.20;;;-151.14;100.00;62537.16;5073109;28;19920;-80
2022/11/22 10:04:14;;;;;;;;;;;7.50;82.30;;;-151.14;100.00;62537.16;5107054;28;19923;-80
2022/11/22 10:06:43;;;;;;;;;;;7.50;82.30;;;-151.14;100.00;62537.16;5089527;28;20157;-80
2022/11/22 10:09:22;;;;;;;;;;;7.50;82.30;;;-151.14;100.00;62537.16;5073295;28;19921;-80
2022/11/22 10:11:51;;;;;;;;;;;7.50;82.20;;;-151.14;100.00;62537.16;5056470;28;20089;-80
2022/11/22 10:14:26;;;;;;;;;;;7.50;82.20;;;-151.14;100.00;62537.16;5092793;28;19920;-80
2022/11/22 10:16:56;;;;;;;;;;;7.50;82.20;;;-151.14;100.00;62537.16;5092781;28;19926;-80
2022/11/22 10:19:27;;;;;;;;;;;7.50;82.30;;;-151.14;100.00;62537.16;5080504;28;19920;-80
2022/11/22 10:21:55;;;;;;;;;;;7.50;82.40;;;-151.14;100.00;62537.16;5106785;28;19927;-80
2022/11/22 10:24:23;;;;;;;;;;;7.50;82.50;;;-151.14;100.00;62537.16;5090801;28;19927;-81
2022/11/22 10:26:51;;;;;;;;;;;7.50;82.50;;;-151.14;100.00;62537.16;5055920;28;19921;-80
2022/11/22 10:29:24;;;;;;;;;;;7.50;82.50;;;-151.14;100.00;62537.16;5089435;28;19920;-80
2022/11/22 10:31:57;;;;;;;;;;;7.50;82.70;;;-151.14;100.00;62537.16;5090812;28;19920;-81
2022/11/22 10:34:30;;;;;;;;;;;7.50;82.80;;;-151.14;100.00;62537.16;5106529;28;19920;-80
2022/11/22 10:37:00;;;;;;;;;;;7.50;82.70;;;-151.14;100.00;62537.16;5089360;28;19920;-81
2022/11/22 10:39:46;;;;;;;;;;;7.50;82.60;;;-151.14;100.00;62537.16;5072888;28;19920;-80
2022/11/22 10:42:41;;;;;;;;;;;7.50;82.60;;;-151.14;100.00;62537.16;5089546;28;19926;-80
2022/11/22 10:45:13;;;;;;;;;;;7.50;82.60;;;-151.14;100.00;62537.16;5053109;28;19921;-80
2022/11/22 10:47:49;;;;;;;;;;;7.50;82.50;;;-151.14;100.00;62537.16;5056176;28;19927;-80
2022/11/22 10:50:19;;;;;;;;;;;7.50;82.70;;;-151.14;100.00;62537.16;5090718;28;19942;-81
2022/11/22 10:52:52;;;;;;;;;;;7.50;82.70;;;-151.14;100.00;62537.16;5092867;28;20213;-80
2022/11/22 10:55:26;;;;;;;;;;;7.50;82.60;;;-151.14;100.00;62537.16;5092176;28;19927;-81
2022/11/22 10:57:59;;;;;;;;;;;7.50;82.60;;;-151.14;100.00;62537.16;5076432;28;19953;-80
2022/11/22 11:00:27;;;;;;;;;;;7.40;82.60;;;-151.14;100.00;62537.16;5059447;28;20127;-81
2022/11/22 11:03:19;;;;;;;;;;;7.40;82.60;;;-151.14;100.00;62537.16;5092840;28;20239;-81
2022/11/22 11:05:49;;;;;;;;;;;7.40;82.70;;;-151.14;100.00;62537.16;5058708;28;19920;-80
2022/11/22 11:08:29;;;;;;;;;;;7.40;82.70;;;-151.14;100.00;62537.16;5075972;28;19926;-80
2022/11/22 11:10:57;;;;;;;;;;;7.40;82.80;;;-151.14;100.00;62537.16;5094356;28;20228;-81
2022/11/22 11:13:26;;;;;;;;;;;7.40;82.80;;;-151.14;100.00;62537.16;5095879;28;19919;-81
2022/11/22 11:15:55;;;;;;;;;;;7.40;82.90;;;-151.14;100.00;62537.16;5079013;28;19920;-81
2022/11/22 11:18:28;;;;;;;;;;;7.40;82.90;;;-151.14;100.00;62537.16;5096067;28;19923;-81
2022/11/22 11:20:56;;;;;;;;;;;7.40;82.90;;;-151.14;100.00;62537.16;5078859;28;19920;-80
2022/11/22 11:23:24;;;;;;;;;;;7.40;82.90;;;-151.14;100.00;62537.16;5093447;28;19926;-81